Decoded Metar for KMRY (MONTEREY in CA, USA) (IATA:MRY) | Meteo·Mobile Aviation Weather
aviador You're here:

KMRY Decoded Metar

MONTEREY in CA, USA
Report Time2019-07-19 17:54:00
UTC Time2019-07-19 19:01:27
Flight Rules Old
Wind240° at 08 kt
W.Decomp.*RWY 28: 4.6 kt HW 6.6 kt LCW
Visibility9999 m
Phenomena:N/A
Clouds:Overcast 015 Hf
Expected CloudBase > 2,400 ft AGL from Temp-Dew spread
Ceiling1,500 ft
Temp18°C (ISA +3)
Dew Point12°C (68% RH)
AAT15.7°C
QNH1015 hPa
Density Alt741 ft
Elevation217 ft
Report Wrong Elevation
Raw Report
KMRY 191754Z 24008KT 210V270 10SM OVC015 18/12 A2996 RMK AO2
SLP157 T01830122 10183 20150 52006=

Extra information for KMRY:More info

Metar Taf Metar & Taf Last 4 Metars F.Rules Stats Wind Profile Meteogram Temp Stats Airport Information Weather charts Add Link Nearby VenuesMetar ALERT Operation Metar Decoded Social comments

AIRNAV info for KMRY